Time;durP1;ratioP1;P1;durP2;ratioP2;P2;SDS_P1;SDS_P2;PMS_P1;PMS_P2;Temp;Humidity;BMP_temperature;BMP_pressure;BME280_temperature;BME280_humidity;BME280_pressure;Samples;Min_cycle;Max_cycle;Signal;HPM_P1;HPM_P2
2022/07/23 00:00:52;;;;;;;10.32;6.60;;;25.60;99.90;;;;;;5079769;28;20857;-55
2022/07/23 00:03:18;;;;;;;10.93;6.53;;;25.70;99.90;;;;;;5092017;28;20382;-56
2022/07/23 00:05:44;;;;;;;10.35;6.70;;;25.60;99.90;;;;;;5078576;28;20445;-60
2022/07/23 00:08:10;;;;;;;10.43;5.90;;;25.60;99.90;;;;;;5071629;28;20418;-56
2022/07/23 00:10:36;;;;;;;10.73;6.13;;;25.50;99.90;;;;;;5082154;28;20870;-55
2022/07/23 00:13:02;;;;;;;10.43;5.95;;;25.40;99.90;;;;;;5092644;28;20374;-55
2022/07/23 00:15:28;;;;;;;10.53;5.80;;;25.40;99.90;;;;;;5080051;28;21004;-56
2022/07/23 00:17:53;;;;;;;11.40;6.00;;;25.40;99.90;;;;;;5071236;28;20476;-57
2022/07/23 00:20:20;;;;;;;13.30;5.93;;;25.40;99.90;;;;;;5070869;28;20391;-63
2022/07/23 00:22:50;;;;;;;8.90;5.72;;;25.40;99.90;;;;;;5088066;28;20478;-56
2022/07/23 00:25:16;;;;;;;10.57;5.50;;;25.30;99.90;;;;;;5091461;28;20398;-56
2022/07/23 00:27:42;;;;;;;10.13;5.85;;;25.30;99.90;;;;;;5090396;28;20449;-55
2022/07/23 00:30:08;;;;;;;9.80;5.43;;;25.20;99.90;;;;;;5091948;28;20473;-57
2022/07/23 00:32:46;;;;;;;9.77;5.80;;;25.10;99.90;;;;;;5076266;28;20471;-56
2022/07/23 00:35:12;;;;;;;9.73;5.45;;;25.10;99.90;;;;;;5071460;28;20411;-56
2022/07/23 00:37:38;;;;;;;10.90;5.40;;;25.10;99.90;;;;;;5071302;28;20477;-54
2022/07/23 00:40:04;;;;;;;11.50;5.65;;;25.10;99.90;;;;;;5071819;28;20376;-55
2022/07/23 00:42:31;;;;;;;10.50;5.60;;;25.10;99.90;;;;;;5084527;28;20405;-58
2022/07/23 00:44:57;;;;;;;9.73;5.25;;;25.10;99.90;;;;;;5073935;28;20414;-56
2022/07/23 00:47:23;;;;;;;10.23;5.68;;;25.00;99.90;;;;;;5076569;28;20466;-56
2022/07/23 00:49:48;;;;;;;10.20;5.30;;;25.00;99.90;;;;;;5071557;28;20383;-56
2022/07/23 00:52:14;;;;;;;9.63;5.63;;;25.00;99.90;;;;;;5070572;28;20400;-55
2022/07/23 00:54:40;;;;;;;10.57;5.87;;;25.00;99.90;;;;;;5070329;28;20741;-56
2022/07/23 00:57:06;;;;;;;9.65;5.45;;;25.00;99.90;;;;;;5082654;28;20931;-65
2022/07/23 00:59:31;;;;;;;10.00;5.47;;;25.00;99.90;;;;;;5089746;28;20390;-54
2022/07/23 01:01:57;;;;;;;9.20;5.50;;;24.90;99.90;;;;;;5081054;28;20384;-57
2022/07/23 01:04:23;;;;;;;9.97;5.47;;;24.80;99.90;;;;;;5069328;28;20387;-56
2022/07/23 01:06:49;;;;;;;9.40;5.73;;;24.70;99.90;;;;;;5088792;28;20725;-58
2022/07/23 01:09:15;;;;;;;9.88;5.70;;;24.60;99.90;;;;;;5090513;28;20449;-55
2022/07/23 01:11:42;;;;;;;9.90;5.80;;;24.70;99.90;;;;;;5075468;28;20415;-54
2022/07/23 01:14:15;;;;;;;10.50;5.30;;;24.60;99.90;;;;;;5069345;28;20379;-67
2022/07/23 01:16:42;;;;;;;10.10;5.50;;;24.60;99.90;;;;;;5088043;28;20439;-56
2022/07/23 01:19:08;;;;;;;10.02;6.10;;;24.70;99.90;;;;;;5090795;28;20378;-67
2022/07/23 01:21:51;;;;;;;13.18;6.00;;;24.60;99.90;;;;;;5073345;28;20833;-56
2022/07/23 01:24:19;;;;;;;9.95;6.00;;;24.60;99.90;;;;;;5070279;28;20372;-56
2022/07/23 01:26:47;;;;;;;10.32;6.00;;;24.60;99.90;;;;;;5071590;28;20416;-56
2022/07/23 01:29:14;;;;;;;10.57;6.28;;;24.60;99.90;;;;;;5070227;28;20419;-56
2022/07/23 01:31:40;;;;;;;10.20;6.07;;;24.60;99.90;;;;;;5087384;28;20491;-58
2022/07/23 01:34:06;;;;;;;11.18;5.88;;;24.50;99.90;;;;;;5088144;28;20382;-60
2022/07/23 01:36:33;;;;;;;10.95;5.70;;;24.40;99.90;;;;;;5090440;28;20523;-55
2022/07/23 01:38:59;;;;;;;9.60;5.70;;;24.40;99.90;;;;;;5079026;28;20392;-54
2022/07/23 01:41:25;;;;;;;10.48;5.40;;;24.40;99.90;;;;;;5069825;28;20379;-56
2022/07/23 01:43:51;;;;;;;10.60;6.40;;;24.30;99.90;;;;;;5079561;28;20390;-59
2022/07/23 01:46:17;;;;;;;10.90;6.33;;;24.30;99.90;;;;;;5088831;28;20423;-55
2022/07/23 01:48:43;;;;;;;10.60;5.97;;;24.20;99.90;;;;;;5079854;28;20768;-55
2022/07/23 01:51:09;;;;;;;10.48;6.10;;;24.20;99.90;;;;;;5068600;28;20467;-64
2022/07/23 01:53:35;;;;;;;12.25;7.10;;;24.20;99.90;;;;;;5070124;28;20395;-55
2022/07/23 01:56:01;;;;;;;13.95;6.60;;;24.10;99.90;;;;;;5069030;28;20445;-55
2022/07/23 01:58:27;;;;;;;10.03;6.40;;;24.00;99.90;;;;;;5076422;28;20480;-54
2022/07/23 02:00:54;;;;;;;11.40;6.07;;;24.00;99.90;;;;;;5089428;28;20378;-54
2022/07/23 02:03:20;;;;;;;11.00;6.40;;;23.90;99.90;;;;;;5082167;28;20482;-55
2022/07/23 02:05:46;;;;;;;9.90;5.90;;;23.80;99.90;;;;;;5069159;28;20790;-54
2022/07/23 02:08:11;;;;;;;12.20;5.80;;;23.80;99.90;;;;;;5083035;28;20446;-55
2022/07/23 02:10:37;;;;;;;9.95;6.32;;;23.90;99.90;;;;;;5086075;28;20898;-55
2022/07/23 02:13:03;;;;;;;14.68;6.55;;;23.90;99.90;;;;;;5079215;28;20390;-54
2022/07/23 02:15:29;;;;;;;10.50;6.50;;;24.00;99.90;;;;;;5088310;28;20988;-55
2022/07/23 02:17:55;;;;;;;11.75;5.85;;;24.00;99.90;;;;;;5085141;28;20424;-55
2022/07/23 02:20:21;;;;;;;11.10;6.80;;;23.80;99.90;;;;;;5068092;28;20464;-58
2022/07/23 02:22:47;;;;;;;10.90;6.68;;;23.60;99.90;;;;;;5070347;28;20383;-57
2022/07/23 02:25:13;;;;;;;11.37;6.20;;;23.60;99.90;;;;;;5075326;28;20389;-59
2022/07/23 02:27:39;;;;;;;13.45;6.85;;;23.50;99.90;;;;;;5087380;28;20928;-58
2022/07/23 02:30:06;;;;;;;10.32;6.97;;;23.60;99.90;;;;;;5077736;28;20502;-54
2022/07/23 02:32:32;;;;;;;11.80;7.03;;;23.60;99.90;;;;;;5071671;28;20390;-58
2022/07/23 02:34:58;;;;;;;11.53;7.00;;;23.60;99.90;;;;;;5083296;28;20402;-57
2022/07/23 02:37:24;;;;;;;12.05;6.70;;;23.50;99.90;;;;;;5082530;28;20409;-54
2022/07/23 02:39:50;;;;;;;10.90;6.80;;;23.50;99.90;;;;;;5086263;28;20463;-55
2022/07/23 02:42:17;;;;;;;10.45;6.28;;;23.50;99.90;;;;;;5089106;28;20396;-55
2022/07/23 02:44:43;;;;;;;10.48;5.97;;;23.50;99.90;;;;;;5076196;28;20403;-54
2022/07/23 02:47:09;;;;;;;11.63;6.68;;;23.40;99.90;;;;;;5077091;28;20417;-64
2022/07/23 02:49:35;;;;;;;11.00;6.65;;;23.30;99.90;;;;;;5071870;28;20402;-54
2022/07/23 02:52:01;;;;;;;11.57;6.22;;;23.20;99.90;;;;;;5087578;28;20405;-54
2022/07/23 02:54:26;;;;;;;10.18;6.53;;;23.10;99.90;;;;;;5079723;28;20387;-54
2022/07/23 02:56:52;;;;;;;14.00;7.00;;;23.10;99.90;;;;;;5072223;28;20883;-54
2022/07/23 02:59:18;;;;;;;10.60;6.20;;;23.10;99.90;;;;;;5087676;28;20402;-53
2022/07/23 03:01:44;;;;;;;11.53;6.37;;;23.10;99.90;;;;;;5083659;28;20439;-61
2022/07/23 03:04:10;;;;;;;10.93;6.70;;;23.00;99.90;;;;;;5075292;28;20488;-66
2022/07/23 03:06:36;;;;;;;11.32;6.20;;;23.10;99.90;;;;;;5092889;28;20428;-59
2022/07/23 03:09:03;;;;;;;11.15;6.65;;;23.10;99.90;;;;;;5068728;28;20499;-59
2022/07/23 03:11:29;;;;;;;11.07;6.63;;;23.00;99.90;;;;;;5071585;28;20387;-60
2022/07/23 03:13:55;;;;;;;10.70;6.47;;;23.00;99.90;;;;;;5087145;28;20443;-55
2022/07/23 03:16:20;;;;;;;11.65;6.70;;;23.10;99.90;;;;;;5084589;28;20411;-54
2022/07/23 03:18:46;;;;;;;10.87;6.60;;;23.20;99.90;;;;;;5074526;28;20394;-55
2022/07/23 03:21:12;;;;;;;11.20;6.50;;;23.20;99.90;;;;;;5092196;28;20386;-65
2022/07/23 03:23:38;;;;;;;11.80;6.97;;;23.20;99.90;;;;;;5062148;28;20534;-54
2022/07/23 03:26:04;;;;;;;11.15;6.22;;;23.20;99.90;;;;;;5075341;28;20405;-54
2022/07/23 03:28:29;;;;;;;12.17;7.40;;;23.20;99.90;;;;;;5074265;28;20411;-55
2022/07/23 03:30:56;;;;;;;12.18;7.55;;;23.20;99.90;;;;;;5092955;28;20382;-55
2022/07/23 03:33:23;;;;;;;11.70;7.20;;;23.30;99.90;;;;;;5085415;28;20396;-54
2022/07/23 03:35:49;;;;;;;11.85;6.60;;;23.20;99.90;;;;;;5071777;28;20467;-55
2022/07/23 03:38:16;;;;;;;11.77;6.60;;;23.00;1.00;;;;;;5084282;28;20932;-54
2022/07/23 03:40:42;;;;;;;12.57;7.03;;;22.90;1.00;;;;;;5086329;28;20449;-58
2022/07/23 03:43:08;;;;;;;12.13;6.72;;;22.80;1.00;;;;;;5072976;28;20383;-59
2022/07/23 03:45:34;;;;;;;10.30;6.10;;;22.80;1.00;;;;;;5086655;28;20427;-59
2022/07/23 03:48:00;;;;;;;11.57;6.90;;;22.80;1.00;;;;;;5082836;28;20465;-55
2022/07/23 03:50:26;;;;;;;10.80;5.90;;;22.70;1.00;;;;;;5072414;28;20422;-54
2022/07/23 03:52:52;;;;;;;11.40;6.32;;;22.70;1.00;;;;;;5079438;28;20887;-55
2022/07/23 03:55:18;;;;;;;10.93;6.20;;;22.80;1.00;;;;;;5071267;28;20418;-53
2022/07/23 03:57:44;;;;;;;10.73;6.17;;;22.70;1.00;;;;;;5076323;28;20402;-55
2022/07/23 04:00:11;;;;;;;10.63;5.70;;;22.60;1.00;;;;;;5091429;28;20940;-64
2022/07/23 04:02:37;;;;;;;10.10;6.10;;;22.50;1.00;;;;;;5079746;28;20396;-54
2022/07/23 04:05:05;;;;;;;10.27;5.95;;;22.50;1.00;;;;;;5072258;28;20495;-54
2022/07/23 04:07:31;;;;;;;10.93;6.45;;;22.60;1.00;;;;;;5070421;28;20593;-58
2022/07/23 04:09:58;;;;;;;12.75;6.70;;;22.70;1.00;;;;;;5090830;28;20394;-54
2022/07/23 04:12:24;;;;;;;11.10;6.00;;;22.70;16.00;;;;;;5089836;28;20424;-55
2022/07/23 04:14:50;;;;;;;14.65;6.78;;;22.60;1.00;;;;;;5088904;28;20410;-54
2022/07/23 04:17:16;;;;;;;10.30;6.30;;;22.70;1.00;;;;;;5070622;28;20388;-55
2022/07/23 04:19:43;;;;;;;11.80;6.77;;;22.40;99.90;;;;;;5074616;28;20396;-54
2022/07/23 04:22:11;;;;;;;11.93;6.60;;;22.40;99.90;;;;;;5073041;28;20421;-64
2022/07/23 04:24:37;;;;;;;10.10;5.97;;;22.40;99.90;;;;;;5071667;28;20407;-54
2022/07/23 04:27:03;;;;;;;11.50;6.25;;;22.50;99.90;;;;;;5089663;28;20406;-54
2022/07/23 04:29:29;;;;;;;11.35;6.93;;;22.50;99.90;;;;;;5090136;28;21384;-54
2022/07/23 04:31:55;;;;;;;11.17;6.67;;;22.70;1.00;;;;;;5090716;28;20465;-54
2022/07/23 04:34:20;;;;;;;10.43;6.40;;;22.90;1.00;;;;;;5091494;28;20378;-54
2022/07/23 04:36:46;;;;;;;11.07;6.50;;;22.90;1.00;;;;;;5087240;28;20443;-54
2022/07/23 04:39:12;;;;;;;11.40;6.10;;;22.90;1.00;;;;;;5090461;28;20396;-54
2022/07/23 04:41:37;;;;;;;10.70;6.40;;;22.80;1.00;;;;;;5078267;28;20404;-54
2022/07/23 04:44:03;;;;;;;10.60;6.22;;;22.90;1.00;;;;;;5076746;28;20393;-53
2022/07/23 04:46:29;;;;;;;10.05;6.50;;;23.00;1.00;;;;;;5089830;28;20858;-54
2022/07/23 04:48:55;;;;;;;10.50;5.87;;;23.00;1.00;;;;;;5080271;28;20470;-54
2022/07/23 04:51:20;;;;;;;10.10;5.80;;;23.10;1.00;;;;;;5073617;28;20524;-56
2022/07/23 04:53:46;;;;;;;11.52;6.55;;;23.20;1.00;;;;;;5091580;28;20377;-54
2022/07/23 04:56:12;;;;;;;10.88;6.40;;;23.40;1.00;;;;;;5077836;28;20398;-64
2022/07/23 04:58:38;;;;;;;10.77;6.30;;;23.60;1.00;;;;;;5075946;28;20438;-57
2022/07/23 05:01:03;;;;;;;12.35;6.55;;;23.60;1.00;;;;;;5088122;28;20525;-57
2022/07/23 05:03:29;;;;;;;10.15;6.40;;;23.60;1.00;;;;;;5084885;28;20843;-55
2022/07/23 05:05:55;;;;;;;9.60;5.80;;;23.70;1.00;;;;;;5080335;28;20394;-54
2022/07/23 05:08:21;;;;;;;10.75;5.90;;;24.00;1.00;;;;;;5079067;28;20449;-54
2022/07/23 05:10:47;;;;;;;10.57;6.40;;;24.30;1.00;;;;;;5080919;28;20391;-55
2022/07/23 05:13:15;;;;;;;11.13;6.43;;;24.40;1.00;;;;;;5078380;28;20449;-65
2022/07/23 05:15:42;;;;;;;11.45;6.43;;;24.40;1.00;;;;;;5079673;28;20426;-54
2022/07/23 05:18:07;;;;;;;13.15;6.55;;;24.40;1.00;;;;;;5079726;28;20393;-54
2022/07/23 05:20:33;;;;;;;10.37;5.70;;;24.50;1.00;;;;;;5077381;28;20680;-55
2022/07/23 05:22:58;;;;;;;10.47;6.27;;;24.70;1.00;;;;;;5081135;28;20405;-55
2022/07/23 05:25:24;;;;;;;12.90;6.57;;;25.60;1.00;;;;;;5087665;28;20480;-57
2022/07/23 05:27:50;;;;;;;9.90;5.70;;;26.10;99.90;;;;;;5088928;28;20421;-55
2022/07/23 05:30:15;;;;;;;10.63;6.20;;;26.10;99.90;;;;;;5087981;28;20406;-55
2022/07/23 05:32:41;;;;;;;11.93;6.30;;;26.00;99.90;;;;;;5070759;28;20383;-54
2022/07/23 05:35:07;;;;;;;10.07;5.80;;;25.70;99.90;;;;;;5080508;28;20859;-54
2022/07/23 05:37:33;;;;;;;11.23;6.88;;;25.40;99.90;;;;;;5086923;28;21044;-57
2022/07/23 05:40:07;;;;;;;12.20;6.83;;;25.10;99.90;;;;;;5070572;28;20501;-58
2022/07/23 05:42:37;;;;;;;10.80;6.60;;;25.00;99.90;;;;;;5082824;28;20381;-54
2022/07/23 05:45:03;;;;;;;10.70;6.63;;;24.90;99.90;;;;;;5078140;28;20890;-54
2022/07/23 05:47:38;;;;;;;11.18;6.70;;;25.10;99.90;;;;;;5081924;28;20417;-55
2022/07/23 05:50:04;;;;;;;10.48;6.50;;;25.40;99.90;;;;;;5084090;28;20918;-54
2022/07/23 05:52:29;;;;;;;13.50;7.88;;;25.60;99.90;;;;;;5078705;28;20388;-54
2022/07/23 05:54:55;;;;;;;12.27;7.37;;;25.00;99.90;;;;;;5081668;28;20399;-62
2022/07/23 05:57:21;;;;;;;10.93;6.80;;;24.60;99.90;;;;;;5078342;28;20395;-55
2022/07/23 05:59:46;;;;;;;11.83;7.03;;;24.40;99.90;;;;;;5079782;28;20478;-54
2022/07/23 06:02:12;;;;;;;11.80;7.10;;;24.40;99.90;;;;;;5074933;28;20739;-65
2022/07/23 06:04:37;;;;;;;11.43;7.17;;;24.40;99.90;;;;;;5080238;28;20413;-62
2022/07/23 06:07:03;;;;;;;13.37;7.30;;;24.50;99.90;;;;;;5083252;28;20395;-54
2022/07/23 06:09:29;;;;;;;13.27;8.10;;;24.50;99.90;;;;;;5081884;28;20490;-54
2022/07/23 06:11:54;;;;;;;15.70;7.20;;;24.20;99.90;;;;;;5082360;28;20388;-54
2022/07/23 06:14:20;;;;;;;12.23;7.97;;;24.20;99.90;;;;;;5079657;28;20390;-54
2022/07/23 06:16:45;;;;;;;10.87;6.93;;;24.20;99.90;;;;;;5085601;28;20382;-57
2022/07/23 06:19:11;;;;;;;11.57;7.33;;;24.40;99.90;;;;;;5071001;28;20383;-61
2022/07/23 06:21:36;;;;;;;11.80;7.07;;;24.30;99.90;;;;;;5068484;28;20398;-59
2022/07/23 06:24:02;;;;;;;12.40;7.20;;;24.60;99.90;;;;;;5087226;28;20473;-55
2022/07/23 06:26:28;;;;;;;11.38;7.15;;;24.90;99.90;;;;;;5084429;28;20803;-54
2022/07/23 06:28:53;;;;;;;12.75;7.20;;;25.40;99.90;;;;;;5085183;28;20939;-55
2022/07/23 06:31:19;;;;;;;13.55;7.30;;;26.60;99.90;;;;;;5078562;28;20390;-55
2022/07/23 06:33:45;;;;;;;13.30;8.03;;;27.20;99.90;;;;;;5087108;28;20522;-55
2022/07/23 06:36:10;;;;;;;11.07;6.77;;;27.10;99.90;;;;;;5081593;28;20379;-55
2022/07/23 06:38:36;;;;;;;12.20;7.23;;;27.00;99.90;;;;;;5077259;28;20393;-55
2022/07/23 06:41:01;;;;;;;11.00;7.07;;;26.60;99.90;;;;;;5077420;28;20735;-54
2022/07/23 06:43:27;;;;;;;12.63;7.40;;;26.50;99.90;;;;;;5074094;28;20385;-55
2022/07/23 06:45:52;;;;;;;11.07;6.77;;;26.50;99.90;;;;;;5080339;28;20404;-54
2022/07/23 06:48:18;;;;;;;11.70;7.13;;;26.50;99.90;;;;;;5076751;28;20413;-55
2022/07/23 06:50:44;;;;;;;10.87;6.70;;;26.10;99.90;;;;;;5078766;28;20394;-55
2022/07/23 06:53:09;;;;;;;13.50;7.17;;;25.60;99.90;;;;;;5080500;28;20387;-54
2022/07/23 06:55:38;;;;;;;13.03;7.43;;;25.10;99.90;;;;;;5076855;28;20403;-54
2022/07/23 06:58:04;;;;;;;11.90;6.90;;;24.70;99.90;;;;;;5079206;28;20820;-54
2022/07/23 07:00:31;;;;;;;13.40;8.10;;;23.80;99.90;;;;;;5082653;28;20384;-54
2022/07/23 07:02:56;;;;;;;12.05;7.20;;;23.50;1.00;;;;;;5072976;28;20865;-54
2022/07/23 07:05:22;;;;;;;12.73;7.00;;;23.20;1.00;;;;;;5082051;28;20399;-54
2022/07/23 07:07:48;;;;;;;11.30;6.72;;;23.00;1.00;;;;;;5078582;28;20414;-54
2022/07/23 07:10:16;;;;;;;12.43;7.30;;;23.00;99.90;;;;;;5084015;28;20960;-64
2022/07/23 07:12:41;;;;;;;15.02;7.80;;;22.90;1.00;;;;;;5082491;28;20393;-54
2022/07/23 07:15:07;;;;;;;14.73;7.90;;;22.80;1.00;;;;;;5078062;28;20386;-54
2022/07/23 07:17:33;;;;;;;12.57;7.80;;;22.60;1.00;;;;;;5079240;28;20382;-54
2022/07/23 07:19:58;;;;;;;14.82;8.20;;;22.60;41.30;;;;;;5078605;28;20395;-55
2022/07/23 07:22:24;;;;;;;13.48;8.00;;;22.60;1.00;;;;;;5077847;28;20414;-53
2022/07/23 07:24:50;;;;;;;13.25;8.23;;;22.60;99.90;;;;;;5078349;28;20468;-53
2022/07/23 07:27:15;;;;;;;13.10;7.70;;;22.70;99.90;;;;;;5077959;28;20801;-61
2022/07/23 07:29:41;;;;;;;12.37;7.83;;;22.70;99.90;;;;;;5077875;28;20390;-59
2022/07/23 07:32:06;;;;;;;15.60;7.97;;;22.60;1.00;;;;;;5079579;28;20739;-53
2022/07/23 07:34:32;;;;;;;14.60;8.20;;;22.70;1.00;;;;;;5079758;28;20416;-54
2022/07/23 07:36:58;;;;;;;14.88;8.68;;;22.40;1.00;;;;;;5078371;28;20436;-61
2022/07/23 07:39:24;;;;;;;13.48;7.70;;;22.30;83.90;;;;;;5080581;28;20380;-54
2022/07/23 07:41:49;;;;;;;12.27;7.80;;;23.00;99.90;;;;;;5078014;28;20429;-53
2022/07/23 07:44:15;;;;;;;13.05;7.40;;;23.80;99.90;;;;;;5078220;28;20426;-65
2022/07/23 07:46:40;;;;;;;13.90;8.00;;;24.40;1.00;;;;;;5079360;28;20723;-56
2022/07/23 07:49:06;;;;;;;14.53;7.63;;;24.70;99.90;;;;;;5077028;28;20410;-54
2022/07/23 07:51:32;;;;;;;11.70;7.83;;;25.50;1.00;;;;;;5074501;28;20473;-53
2022/07/23 07:53:58;;;;;;;13.48;8.30;;;26.10;99.90;;;;;;5085985;28;20370;-55
2022/07/23 07:56:23;;;;;;;13.20;7.78;;;25.90;1.00;;;;;;5086602;28;20390;-57
2022/07/23 07:58:49;;;;;;;14.25;9.65;;;25.40;99.90;;;;;;5080589;28;20408;-56
2022/07/23 08:01:15;;;;;;;15.85;9.00;;;24.60;99.90;;;;;;5081212;28;20471;-62
2022/07/23 08:03:40;;;;;;;15.75;9.20;;;24.00;99.90;;;;;;5081123;28;20370;-57
2022/07/23 08:06:06;;;;;;;17.33;8.85;;;23.50;1.00;;;;;;5083037;28;20391;-53
2022/07/23 08:08:32;;;;;;;13.68;8.80;;;23.20;1.00;;;;;;5077791;28;20419;-54
2022/07/23 08:10:57;;;;;;;15.10;9.60;;;23.10;99.90;;;;;;5080459;28;20401;-53
2022/07/23 08:13:23;;;;;;;15.97;9.40;;;23.20;1.00;;;;;;5083234;28;20392;-54
2022/07/23 08:15:49;;;;;;;14.63;8.93;;;23.30;99.90;;;;;;5079968;28;20876;-54
2022/07/23 08:18:14;;;;;;;13.90;8.30;;;23.50;99.90;;;;;;5081038;28;20395;-64
2022/07/23 08:20:40;;;;;;;15.27;8.83;;;23.80;1.00;;;;;;5082960;28;20409;-54
2022/07/23 08:23:08;;;;;;;12.55;8.60;;;23.70;99.90;;;;;;5084046;28;20942;-56
2022/07/23 08:25:39;;;;;;;14.80;9.35;;;23.80;1.00;;;;;;5084384;28;20436;-55
2022/07/23 08:28:07;;;;;;;12.88;7.90;;;24.60;99.90;;;;;;5087855;28;20962;-56
2022/07/23 08:30:35;;;;;;;12.73;7.97;;;26.50;99.90;;;;;;5083507;28;20408;-54
2022/07/23 08:33:07;;;;;;;12.70;7.40;;;28.40;1.00;;;;;;5079560;28;20387;-54
2022/07/23 08:35:37;;;;;;;13.75;7.18;;;28.60;99.90;;;;;;5081468;28;20374;-54
2022/07/23 08:38:06;;;;;;;11.50;6.60;;;28.20;99.90;;;;;;5080984;28;20371;-56
2022/07/23 08:40:33;;;;;;;14.68;7.13;;;28.10;99.90;;;;;;5079253;28;20400;-55
2022/07/23 08:43:00;;;;;;;12.77;6.97;;;27.70;99.90;;;;;;5080738;28;20383;-53
2022/07/23 08:45:27;;;;;;;11.35;7.10;;;27.60;99.90;;;;;;5081436;28;20393;-54
2022/07/23 08:47:56;;;;;;;10.65;6.68;;;27.80;99.90;;;;;;5080248;28;20804;-56
2022/07/23 08:50:23;;;;;;;11.00;6.57;;;27.90;99.90;;;;;;5079688;28;20473;-54
2022/07/23 08:52:50;;;;;;;12.23;6.90;;;29.10;99.90;;;;;;5082268;28;20391;-54
2022/07/23 08:55:18;;;;;;;10.73;5.13;;;29.70;99.90;;;;;;5079685;28;20393;-64
2022/07/23 08:57:44;;;;;;;10.63;6.40;;;29.50;99.90;;;;;;5077740;28;20400;-56
2022/07/23 09:00:10;;;;;;;10.30;5.82;;;30.60;99.90;;;;;;5081703;28;20475;-54
2022/07/23 09:02:42;;;;;;;10.40;6.20;;;31.80;99.90;;;;;;5082895;28;20408;-55
2022/07/23 09:05:10;;;;;;;10.90;6.70;;;32.70;99.90;;;;;;5079942;28;20391;-54
2022/07/23 09:07:37;;;;;;;11.10;6.82;;;33.70;99.90;;;;;;5079921;28;20402;-54
2022/07/23 09:10:09;;;;;;;11.40;6.50;;;34.20;1.00;;;;;;5081213;28;20432;-54
2022/07/23 09:12:36;;;;;;;9.90;6.75;;;34.30;1.00;;;;;;5079403;28;20534;-56
2022/07/23 09:15:07;;;;;;;16.63;7.45;;;34.10;99.90;;;;;;5081461;28;20387;-59
2022/07/23 09:17:41;;;;;;;10.63;6.78;;;33.20;99.90;;;;;;5079473;28;20440;-54
2022/07/23 09:20:13;;;;;;;12.00;6.60;;;32.00;99.90;;;;;;5079140;28;20438;-54
2022/07/23 09:22:43;;;;;;;10.17;6.33;;;31.60;99.90;;;;;;5079890;28;20387;-57
2022/07/23 09:25:19;;;;;;;12.70;6.63;;;32.50;99.90;;;;;;5078886;28;20438;-54
2022/07/23 09:27:55;;;;;;;11.40;6.80;;;33.60;99.90;;;;;;5079923;28;20420;-54
2022/07/23 09:30:24;;;;;;;10.38;6.63;;;34.10;99.90;;;;;;5078065;28;20393;-54
2022/07/23 09:33:05;;;;;;;10.23;6.73;;;;;;;;;;5081199;28;20389;-54
2022/07/23 09:35:54;;;;;;;11.40;7.03;;;35.60;99.90;;;;;;5078079;28;20422;-54
2022/07/23 09:38:22;;;;;;;12.20;8.30;;;36.30;99.90;;;;;;5079760;28;20841;-56
2022/07/23 09:41:09;;;;;;;10.70;8.10;;;36.90;99.90;;;;;;5082359;28;20474;-54
2022/07/23 09:43:35;;;;;;;11.13;8.47;;;36.90;99.90;;;;;;5086975;28;21133;-54
2022/07/23 09:46:20;;;;;;;11.77;8.90;;;36.10;99.90;;;;;;5081330;28;20434;-54
2022/07/23 09:48:49;;;;;;;11.45;8.32;;;36.30;99.90;;;;;;5078830;28;20408;-54
2022/07/23 09:51:18;;;;;;;10.27;8.20;;;36.10;99.90;;;;;;5070329;28;20380;-59
2022/07/23 09:53:44;;;;;;;12.68;8.07;;;36.40;99.90;;;;;;5087986;28;20394;-54
2022/07/23 09:56:13;;;;;;;12.10;8.70;;;36.40;99.90;;;;;;5083021;28;20413;-53
2022/07/23 09:58:49;;;;;;;13.00;8.57;;;35.60;99.90;;;;;;5080438;28;21094;-54
2022/07/23 10:01:16;;;;;;;11.38;7.68;;;35.70;99.90;;;;;;5077822;28;20395;-62
2022/07/23 10:03:43;;;;;;;10.93;7.67;;;36.00;99.90;;;;;;5076056;28;20473;-56
2022/07/23 10:06:13;;;;;;;9.32;7.50;;;35.90;99.90;;;;;;5079309;28;20750;-56
2022/07/23 10:08:47;;;;;;;9.80;7.15;;;36.00;99.90;;;;;;5080245;28;20479;-55
2022/07/23 10:11:14;;;;;;;9.98;7.80;;;35.70;99.90;;;;;;5085328;28;20399;-55
2022/07/23 10:16:16;;;;;;;10.57;8.07;;;35.30;99.90;;;;;;5079888;28;20408;-62
2022/07/23 10:18:42;;;;;;;10.48;8.30;;;35.20;99.90;;;;;;5073147;28;20479;-55
2022/07/23 10:21:09;;;;;;;15.43;8.40;;;35.60;99.90;;;;;;5081158;28;20487;-55
2022/07/23 10:23:42;;;;;;;11.40;8.77;;;36.10;99.90;;;;;;5073637;28;20823;-55
2022/07/23 10:26:24;;;;;;;11.38;8.45;;;35.90;99.90;;;;;;5076107;28;21428;-55
2022/07/23 10:29:04;;;;;;;11.27;8.80;;;35.70;99.90;;;;;;5083789;28;20454;-55
2022/07/23 10:31:58;;;;;;;13.10;9.40;;;35.10;99.90;;;;;;5078123;28;20395;-55
2022/07/23 10:34:30;;;;;;;11.38;8.43;;;34.60;99.90;;;;;;5068831;28;20387;-56
2022/07/23 10:37:11;;;;;;;11.40;8.03;;;34.80;99.90;;;;;;5069727;28;20376;-56
2022/07/23 10:39:38;;;;;;;11.63;8.30;;;35.10;99.90;;;;;;5068800;28;20821;-54
2022/07/23 10:42:17;;;;;;;10.40;9.17;;;34.40;99.90;;;;;;5069327;28;20477;-54
2022/07/23 10:44:48;;;;;;;12.40;8.05;;;33.80;99.90;;;;;;5068818;28;20391;-54
2022/07/23 10:47:40;;;;;;;10.10;6.70;;;33.80;99.90;;;;;;5069225;28;20803;-54
2022/07/23 10:50:30;;;;;;;11.63;7.00;;;33.70;99.90;;;;;;5069514;28;20502;-54
2022/07/23 10:53:08;;;;;;;11.30;6.80;;;33.30;99.90;;;;;;5069523;28;20426;-54
2022/07/23 10:55:33;;;;;;;11.85;7.40;;;32.60;99.90;;;;;;5068408;28;20402;-54
2022/07/23 10:58:00;;;;;;;11.87;7.77;;;32.40;99.90;;;;;;5069499;28;20475;-54
2022/07/23 11:00:30;;;;;;;10.00;7.00;;;32.40;99.90;;;;;;5068342;28;20403;-55
2022/07/23 11:03:01;;;;;;;10.90;7.55;;;32.60;99.90;;;;;;5069424;28;20836;-55
2022/07/23 11:05:44;;;;;;;15.68;7.60;;;32.40;99.90;;;;;;5068592;28;20710;-54
2022/07/23 11:08:14;;;;;;;10.60;7.28;;;32.90;99.90;;;;;;5069181;28;20852;-54
2022/07/23 11:11:08;;;;;;;10.43;7.00;;;33.10;99.90;;;;;;5068919;28;20437;-54
2022/07/23 11:13:47;;;;;;;11.52;7.35;;;32.40;99.90;;;;;;5074228;28;20378;-54
2022/07/23 11:16:14;;;;;;;10.80;7.72;;;32.50;99.90;;;;;;5089715;28;20394;-54
2022/07/23 11:18:40;;;;;;;10.57;6.43;;;32.10;99.90;;;;;;5088711;28;20452;-54
2022/07/23 11:21:28;;;;;;;9.98;6.47;;;32.10;99.90;;;;;;5089236;28;20382;-55
2022/07/23 11:24:00;;;;;;;12.60;7.15;;;32.00;99.90;;;;;;5089456;28;20453;-54
2022/07/23 11:26:41;;;;;;;10.88;7.03;;;31.60;99.90;;;;;;5090850;28;20392;-55
2022/07/23 11:29:25;;;;;;;11.82;7.30;;;32.50;99.90;;;;;;5093158;28;20470;-54
2022/07/23 11:31:55;;;;;;;12.03;8.40;;;32.70;99.90;;;;;;5093156;28;20378;-54
2022/07/23 11:34:34;;;;;;;11.30;7.03;;;32.80;99.90;;;;;;5092171;28;20374;-60
2022/07/23 11:37:01;;;;;;;12.25;7.60;;;32.90;99.90;;;;;;5092849;28;20495;-54
2022/07/23 11:39:28;;;;;;;12.50;7.90;;;32.70;99.90;;;;;;5092107;28;20912;-55
2022/07/23 11:41:55;;;;;;;14.05;8.30;;;32.90;99.90;;;;;;5092816;28;20375;-56
2022/07/23 11:44:34;;;;;;;12.55;7.70;;;32.90;99.90;;;;;;5092365;28;20409;-61
2022/07/23 11:47:02;;;;;;;11.10;7.43;;;32.70;99.90;;;;;;5092573;28;20797;-55
2022/07/23 11:49:28;;;;;;;13.52;8.43;;;32.70;99.90;;;;;;5092023;28;20498;-54
2022/07/23 11:52:11;;;;;;;10.70;7.18;;;32.70;99.90;;;;;;5092966;28;20453;-55
2022/07/23 11:54:47;;;;;;;11.60;7.25;;;32.40;99.90;;;;;;5092064;28;20390;-54
2022/07/23 11:57:14;;;;;;;11.55;8.20;;;32.20;99.90;;;;;;5092352;28;20382;-55
2022/07/23 11:59:40;;;;;;;11.15;7.40;;;31.70;99.90;;;;;;5091682;28;20382;-54
2022/07/23 12:02:06;;;;;;;10.53;8.00;;;31.60;99.90;;;;;;5092412;28;20390;-54
2022/07/23 12:04:42;;;;;;;11.60;7.30;;;31.30;99.90;;;;;;5091344;28;20371;-55
2022/07/23 12:07:33;;;;;;;12.40;9.00;;;31.50;99.90;;;;;;5092376;28;20410;-55
2022/07/23 12:10:02;;;;;;;12.45;8.10;;;31.50;99.90;;;;;;5092451;28;20413;-54
2022/07/23 12:12:35;;;;;;;11.55;8.10;;;31.60;99.90;;;;;;5091511;28;20378;-55
2022/07/23 12:15:01;;;;;;;10.77;7.25;;;31.60;99.90;;;;;;5073634;28;20741;-54
2022/07/23 12:17:29;;;;;;;13.10;7.97;;;31.60;99.90;;;;;;5071387;28;20372;-55
2022/07/23 12:19:57;;;;;;;11.32;7.78;;;31.80;99.90;;;;;;5071815;28;20432;-55
2022/07/23 12:22:24;;;;;;;10.82;7.95;;;32.00;99.90;;;;;;5070799;28;20383;-55
2022/07/23 12:25:04;;;;;;;10.88;7.20;;;32.40;99.90;;;;;;5071567;28;20437;-54
2022/07/23 12:27:29;;;;;;;10.50;7.70;;;32.90;99.90;;;;;;5070535;28;20907;-59
2022/07/23 12:29:57;;;;;;;11.13;7.45;;;33.10;99.90;;;;;;5070547;28;21594;-54
2022/07/23 12:32:25;;;;;;;10.80;7.50;;;32.90;99.90;;;;;;5070675;28;20420;-58
2022/07/23 12:35:08;;;;;;;11.60;8.68;;;32.50;99.90;;;;;;5071602;28;20395;-55
2022/07/23 12:37:36;;;;;;;12.75;7.68;;;32.40;99.90;;;;;;5070215;28;20379;-54
2022/07/23 12:40:22;;;;;;;11.93;8.90;;;32.60;99.90;;;;;;5069987;28;20392;-55
2022/07/23 12:42:50;;;;;;;14.27;9.30;;;32.20;99.90;;;;;;5071461;28;20387;-54
2022/07/23 12:45:16;;;;;;;11.75;7.93;;;32.40;99.90;;;;;;5071434;28;20379;-55
2022/07/23 12:48:05;;;;;;;13.10;8.40;;;32.30;99.90;;;;;;5070717;28;20923;-55